createdAt,value
2023-05-05T00:00:02.011Z,1007.7989385998085
2023-05-05T00:15:01.648Z,1007.6920759396215
2023-05-05T00:30:02.295Z,1007.5286370137131
2023-05-05T00:45:01.956Z,1007.3571168430555
2023-05-05T01:00:01.624Z,1007.2810152243753
2023-05-05T01:15:02.244Z,1007.1390083295881
2023-05-05T01:30:01.905Z,1006.9778973139427
2023-05-05T01:45:02.539Z,1007.0108942644018
2023-05-05T02:00:02.132Z,1006.789889326118
2023-05-05T02:15:01.705Z,1006.6432770077464
2023-05-05T02:30:02.466Z,1006.728346211325
2023-05-05T02:45:02.144Z,1006.64090772958
2023-05-05T03:00:01.722Z,1006.6638871534808
2023-05-05T03:15:02.325Z,1006.6430476143088
2023-05-05T03:30:02.026Z,1006.7439844033719
2023-05-05T03:45:01.659Z,1006.6003872301891
2023-05-05T04:00:02.259Z,1006.7557615209206
2023-05-05T04:15:01.894Z,1006.8127666478612
2023-05-05T04:30:02.001Z,1006.8914410331797
2023-05-05T04:45:01.638Z,1006.5769653597526
2023-05-05T05:00:02.225Z,1006.4540281324432
2023-05-05T05:15:01.830Z,1006.9050571642157
2023-05-05T05:30:02.486Z,1007.1280966283641
2023-05-05T05:45:02.150Z,1007.049556612881
2023-05-05T06:00:02.382Z,1007.4433509904986
2023-05-05T06:15:02.154Z,1007.5780542867216
2023-05-05T06:30:01.804Z,1007.819462683059
2023-05-05T06:45:02.450Z,1007.8435160261625
2023-05-05T07:00:02.173Z,1007.8589848737822
2023-05-05T07:15:09.346Z,1008.0460172788808
2023-05-05T07:30:04.038Z,1008.0479505444679
2023-05-05T07:45:02.275Z,1008.0446150099762
2023-05-05T08:00:01.933Z,1008.343708586999
2023-05-05T08:15:01.558Z,1008.2277907764069
2023-05-05T08:30:02.267Z,1008.2967040336775
2023-05-05T08:45:01.862Z,1008.4168379319533
2023-05-05T09:00:02.508Z,1008.5780377654545
2023-05-05T09:15:02.143Z,1008.4774774530216
2023-05-05T09:30:01.808Z,1008.4213231412098
2023-05-05T09:45:02.525Z,1008.4194478170855
2023-05-05T10:00:02.277Z,1008.1840434903067
2023-05-05T10:15:01.951Z,1008.1712156077534
2023-05-05T10:30:01.622Z,1008.2367591320134
2023-05-05T10:45:02.297Z,1008.1809268123235
2023-05-05T11:00:02.031Z,1008.0091561872758
2023-05-05T11:15:01.632Z,1007.8511333446536
2023-05-05T11:30:02.409Z,1007.7663353679558
2023-05-05T11:45:02.066Z,1007.5766305682321
2023-05-05T12:00:01.780Z,1007.3794125022522
2023-05-05T12:15:02.434Z,1007.2192542275324
2023-05-05T12:30:02.192Z,1007.2079143441656
2023-05-05T12:45:01.865Z,1007.1432039331473
2023-05-05T13:00:02.524Z,1007.0282379553902
2023-05-05T13:15:02.124Z,1006.9788889875036
2023-05-05T13:30:01.802Z,1006.7634098132446
2023-05-05T13:45:02.427Z,1006.4179927766318
2023-05-05T14:00:02.091Z,1006.3071166207724
2023-05-05T14:15:01.690Z,1006.2532362688439
2023-05-05T14:30:02.338Z,1006.2939837937917
2023-05-05T14:45:01.906Z,1007.5697481891069
2023-05-05T15:00:02.545Z,1007.9011819226223
2023-05-05T15:15:02.180Z,1008.027147597833
2023-05-05T15:30:01.886Z,1007.9331708258793
2023-05-05T15:45:02.525Z,1008.0553006268542
2023-05-05T16:00:02.249Z,1008.0796155847728
2023-05-05T16:15:01.901Z,1008.1285309472338
2023-05-05T16:30:01.559Z,1008.3790123163351
2023-05-05T16:45:02.195Z,1008.2282965917818
2023-05-05T17:00:01.765Z,1008.0036688564304
2023-05-05T17:15:02.353Z,1008.1080385150083
2023-05-05T17:30:01.959Z,1008.2124950117295
2023-05-05T17:45:01.581Z,1007.7921667179087
2023-05-05T18:00:02.211Z,1007.8748452765863
2023-05-05T18:15:01.873Z,1008.0948613768792
2023-05-05T18:30:02.533Z,1008.2047483600245
2023-05-05T18:45:02.136Z,1008.2962401259017
2023-05-05T19:00:01.818Z,1008.5544200257442
2023-05-05T19:15:02.431Z,1008.7198609096573
2023-05-05T19:30:02.164Z,1008.4009012486349
2023-05-05T19:45:01.772Z,1008.561177408242
2023-05-05T20:00:02.402Z,1008.6458940773291
2023-05-05T20:15:02.019Z,1008.6846279913027
2023-05-05T20:30:01.677Z,1008.5581635908092
2023-05-05T20:45:02.286Z,1008.6540246002976
2023-05-05T21:00:01.890Z,1008.6950301979101
2023-05-05T21:15:02.518Z,1008.6024999850079
2023-05-05T21:30:02.174Z,1008.6547532550175
2023-05-05T21:45:01.797Z,1008.6235475278709
2023-05-05T22:00:02.395Z,1008.6112446516167
2023-05-05T22:15:02.034Z,1008.4914766580544
2023-05-05T22:30:01.704Z,1008.5552682243915
2023-05-05T22:45:02.297Z,1008.6052242712046
2023-05-05T23:00:01.909Z,1008.6748882651553
2023-05-05T23:15:02.493Z,1008.5759394947048
2023-05-05T23:30:02.118Z,1008.6245713298564
2023-05-05T23:45:01.757Z,1008.7171360752108
